Flight Briefing for CPX319

Departure Arrival
Washington Dulles International Airport (KIAD)
Click to view FAA NOTAMS
Seattle-Tacoma International Airport (KSEA)
Click to view FAA NOTAMS
Departure Time Arrival Time
N/A N/A
Aircraft Distance
B767-300BDSF 2001nm
Departure METAR Arrival METAR
KIAD 230652Z 18005KT 10SM FEW100 SCT250 16/09 A3019 RMK AO2 SLP221 T01560089 KSEA 230653Z 18005KT 10SM BKN130 16/12 A3004 RMK AO2 SLP178 T01610117
Suggested Route
MCRAY2 MCRAY J518 IHD LEJOY J518 DJB J34 HASTE KP87M CESNA ISN MLP GLASR1


View recent IFR Routes data
Notes



Charts and Procedures

Charts for KIAD
No chart available
Charts for KSEA
No chart available

Windy.com Weather Map